MAPA DE AEROPUERTO

INFORMACIÓN METAR y TAF

METAR FOR EGPH
ADDS - METARS form results

(0415 UTC 22 June 2021)
Data provider http://aviationweather.gov/metar/data/
 
METAR text: EGPH 220350Z 24001KT 5000 BR NSC 04/04 Q1022
Conditions at: EGPH (EDINBURGH AIRPOR, GB) observed 0350 UTC 22 June 2021
Temperature: 4.0°C (39°F)
Dewpoint: 4.0°C (39°F) [RH = 100%]
Pressure (altimeter): 30.18 inches Hg (1022.0 mb)
Winds: from the WSW (240 degrees) at 1 MPH (1 knots; 0.5 m/s)
Visibility: 3 miles ( 5 km)
Ceiling: at least 12,000 feet AGL
Clouds: sky clear below 12,000 feet AGL
Weather: BR  (mist)

METAR text: EGPH 220320Z 27001KT 6000 NSC 04/03 Q1022
Conditions at: EGPH (EDINBURGH AIRPOR, GB) observed 0320 UTC 22 June 2021
Temperature: 4.0°C (39°F)
Dewpoint: 3.0°C (37°F) [RH = 93%]
Pressure (altimeter): 30.18 inches Hg (1022.0 mb)
Winds: from the W (270 degrees) at 1 MPH (1 knots; 0.5 m/s)
Visibility: 4 miles ( 6 km)
Ceiling: at least 12,000 feet AGL
Clouds: sky clear below 12,000 feet AGL
Weather: no significant weather observed at this time

Forecast for: AMD
Text: TAF AMD EGPH 220255Z 2203/2224 VRB03KT 9999 SCT045
Forecast period: 0300 to 1200 UTC 22 June 2021
Forecast type: FROM: standard forecast or significant change
Winds: variable direction winds at 3 MPH (3 knots; 1.5 m/s)
Visibility: 6 or more miles (10+ km)
Ceiling: at least 12,000 feet AGL
Clouds: scattered clouds at 4500 feet AGL
Weather: no significant weather forecast for this period
Text: TEMPO 2203/2207 7000
Forecast period: 0300 to 0700 UTC 22 June 2021
Forecast type: TEMPORARY: The following changes expected for less than half the time period
Visibility: 4 miles (7 km)
Ceiling: unknown
Clouds: missing
Weather: no significant weather forecast for this period
Text: BECMG 2212/2215 27010KT
Forecast period: 1200 UTC 22 June 2021 to 0000 UTC 23 June 2021
Forecast type: BECOMING: Conditions expected to become as follows by 1500 UTC 22 June 2021
Winds: from the W (270 degrees) at 12 MPH (10 knots; 5.1 m/s)
Visibility: 6 or more miles (10+ km)
Ceiling: at least 12,000 feet AGL
Clouds: scattered clouds at 4500 feet AGL
Weather: no significant weather forecast for this period
Text: PROB30
Forecast period: 2200 UTC 22 June 2021 to 0000 UTC 23 June 2021
Forecast type: TEMPORARY: The following changes expected for less than half the time period
Visibility: missing
Ceiling: 1400 feet AGL
Clouds: broken clouds at 1400 feet AGL
Weather: no significant weather forecast for this period